Benson, MN

9:58 AM CDT on May 29, 2017 (GMT -0500)
Benson Municipal

Weather History for KBBB - April, 2013

Change the Weather History Date:

Monday, April 1, 2013

  Actual Average Record
Temperature  
Mean Temperature 21 °F -  
Max Temperature 28 °F 47 °F 73 °F (2015)
Min Temperature 14 °F 26 °F 0 °F (1975)
Degree Days  
Heating Degree Days 44    
Moisture  
Dew Point 15 °F    
Average Humidity 76    
Maximum Humidity 93    
Minimum Humidity 59    
Precipitation  
Precipitation 0.00 in - - ()
Sea Level Pressure  
Sea Level Pressure 30.27 in    
Wind  
Wind Speed 12 mph (NNW)    
Max Wind Speed 16 mph    
Max Gust Speed 23 mph    
Visibility 10 miles    
Events      
Averages and records for this station are not official NWS values.
T = Trace of Precipitation, MM = Missing Value Source: NWS Daily Summary

Daily Weather History Graph

Daily Weather History Graph

Search for Another Location

Airport or City:

Trip Planner

Search our weather history database for the weather conditions in past years. The results will help you decide how hot, cold, wet, or windy it might be!

Date:

Astronomy

Apr. 01, 2013 Rise Set
Actual Time 7:02 AM CDT 7:51 PM CDT
Civil Twilight 6:32 AM CDT 8:20 PM CDT
Nautical Twilight 5:57 AM CDT 8:56 PM CDT
Astronomical Twilight 5:20 AM CDT 9:33 PM CDT
Moon 1:12 AM CDT (4/1) 10:37 AM CDT (4/1)
Length of Visible Light 13h 48m
Length of Day
12h 48m
Waning Gibbous, 67% of the Moon is Illuminated
Apr 1
Waning Gibbous
Apr 2
Last Quarter
Apr 10
New
Apr 18
First Quarter
Apr 25
Full

Hourly Weather History & Observations

Time (CDT) Temp. Windchill Dew Point Humidity Pressure Visibility Wind Dir Wind Speed Gust Speed Precip Events Conditions
12:13 AM 19.4 °F 5.5 °F 14.0 °F 80% 30.18 in 10.0 mi North 15.0 mph 21.9 mph N/A   Clear
12:32 AM 17.6 °F 4.3 °F 14.0 °F 86% 30.19 in 10.0 mi North 12.7 mph - N/A   Clear
12:52 AM 17.6 °F 4.3 °F 12.2 °F 79% 30.19 in 10.0 mi North 12.7 mph 18.4 mph N/A   Clear
1:12 AM 17.6 °F 3.2 °F 12.2 °F 79% 30.19 in 10.0 mi North 15.0 mph 20.7 mph N/A   Clear
1:32 AM 17.6 °F 3.7 °F 12.2 °F 79% 30.20 in 10.0 mi North 13.8 mph 23.0 mph N/A   Clear
1:53 AM 17.6 °F 3.7 °F 12.2 °F 79% 30.20 in 10.0 mi North 13.8 mph - N/A   Clear
2:12 AM 17.6 °F 4.3 °F 12.2 °F 79% 30.20 in 10.0 mi North 12.7 mph 18.4 mph N/A   Clear
2:32 AM 17.6 °F 4.3 °F 12.2 °F 79% 30.21 in 10.0 mi North 12.7 mph - N/A   Clear
2:53 AM 17.6 °F 4.3 °F 12.2 °F 79% 30.21 in 10.0 mi North 12.7 mph 18.4 mph N/A   Clear
3:11 AM 17.6 °F 3.2 °F 12.2 °F 79% 30.21 in 10.0 mi North 15.0 mph - N/A   Clear
3:33 AM 17.6 °F 5.0 °F 12.2 °F 79% 30.22 in 10.0 mi North 11.5 mph - N/A   Clear
3:53 AM 15.8 °F 3.4 °F 12.2 °F 86% 30.22 in 10.0 mi North 10.4 mph - N/A   Clear
4:12 AM 15.8 °F 2.7 °F 12.2 °F 86% 30.22 in 10.0 mi North 11.5 mph 17.3 mph N/A   Clear
4:33 AM 15.8 °F 2.1 °F 10.4 °F 79% 30.22 in 10.0 mi North 12.7 mph - N/A   Clear
4:53 AM 15.8 °F 3.4 °F 12.2 °F 86% 30.23 in 10.0 mi North 10.4 mph 17.3 mph N/A   Clear
5:12 AM 15.8 °F 4.2 °F 10.4 °F 79% 30.23 in 10.0 mi North 9.2 mph - N/A   Clear
5:33 AM 15.8 °F 6.1 °F 10.4 °F 79% 30.23 in 10.0 mi North 6.9 mph - N/A   Clear
5:53 AM 14.0 °F 2.9 °F 10.4 °F 86% 30.24 in 10.0 mi NNW 8.1 mph - N/A   Clear
6:12 AM 14.0 °F 2.9 °F 10.4 °F 86% 30.25 in 10.0 mi NNW 8.1 mph - N/A   Clear
6:33 AM 14.0 °F 1.2 °F 10.4 °F 86% 30.26 in 10.0 mi NNW 10.4 mph - N/A   Clear
6:53 AM 14.0 °F 2.0 °F 10.4 °F 86% 30.26 in 10.0 mi NNW 9.2 mph - N/A   Clear
7:12 AM 14.0 °F 2.9 °F 10.4 °F 86% 30.27 in 10.0 mi NNW 8.1 mph - N/A   Clear
7:33 AM 15.8 °F 5.1 °F 10.4 °F 79% 30.28 in 10.0 mi NNW 8.1 mph - N/A   Clear
7:52 AM 15.8 °F 4.2 °F 12.2 °F 86% 30.28 in 10.0 mi North 9.2 mph - N/A   Clear
8:12 AM 17.6 °F 5.7 °F 12.2 °F 79% 30.28 in 10.0 mi North 10.4 mph - N/A   Clear
8:32 AM 17.6 °F 4.3 °F 12.2 °F 79% 30.28 in 10.0 mi North 12.7 mph - N/A   Clear
8:52 AM 17.6 °F 5.0 °F 12.2 °F 79% 30.29 in 10.0 mi North 11.5 mph - N/A   Clear
9:13 AM 19.4 °F 7.9 °F 12.2 °F 74% 30.30 in 10.0 mi North 10.4 mph - N/A   Clear
9:32 AM 19.4 °F 7.2 °F 12.2 °F 74% 30.30 in 10.0 mi North 11.5 mph - N/A   Clear
9:53 AM 21.2 °F 9.5 °F 12.2 °F 68% 30.30 in 10.0 mi North 11.5 mph - N/A   Clear
10:13 AM 21.2 °F 9.5 °F 14.0 °F 74% 30.31 in 10.0 mi NNW 11.5 mph - N/A   Clear
10:32 AM 23.0 °F 11.1 °F 15.8 °F 74% 30.31 in 10.0 mi NNW 12.7 mph - N/A   Clear
10:53 AM 23.0 °F 10.6 °F 15.8 °F 74% 30.31 in 10.0 mi NNW 13.8 mph - N/A   Clear
11:13 AM 24.8 °F 12.9 °F 15.8 °F 69% 30.31 in 10.0 mi North 13.8 mph - N/A   Clear
11:32 AM 24.8 °F 14.0 °F 15.8 °F 69% 30.31 in 10.0 mi NNW 11.5 mph 18.4 mph N/A   Clear
11:53 AM 24.8 °F 12.9 °F 15.8 °F 69% 30.31 in 10.0 mi NNW 13.8 mph 18.4 mph N/A   Clear
12:13 PM 24.8 °F 13.4 °F 15.8 °F 69% 30.31 in 10.0 mi North 12.7 mph - N/A   Clear
12:32 PM 26.6 °F 15.2 °F 15.8 °F 64% 30.31 in 10.0 mi North 13.8 mph - N/A   Clear
12:53 PM 26.6 °F 15.2 °F 15.8 °F 64% 30.31 in 10.0 mi NNW 13.8 mph - N/A   Clear
1:13 PM 26.6 °F 14.7 °F 17.6 °F 69% 30.31 in 10.0 mi North 15.0 mph 18.4 mph N/A   Scattered Clouds
1:32 PM 26.6 °F 14.7 °F 17.6 °F 69% 30.31 in 10.0 mi NNW 15.0 mph 19.6 mph N/A   Clear
1:53 PM 28.4 °F 16.6 °F 17.6 °F 64% 30.31 in 10.0 mi NNW 16.1 mph - N/A   Clear
2:13 PM 28.4 °F 17.0 °F 15.8 °F 59% 30.31 in 10.0 mi NNW 15.0 mph - N/A   Clear
2:32 PM 28.4 °F 16.6 °F 17.6 °F 64% 30.31 in 10.0 mi NNW 16.1 mph - N/A   Clear
2:53 PM 28.4 °F 16.6 °F 17.6 °F 64% 30.31 in 10.0 mi NNW 16.1 mph - N/A   Clear
3:13 PM 28.4 °F 18.0 °F 17.6 °F 64% 30.30 in 10.0 mi North 12.7 mph 19.6 mph N/A   Clear
3:32 PM 28.4 °F 16.6 °F 17.6 °F 64% 30.30 in 10.0 mi NNW 16.1 mph 19.6 mph N/A   Clear
3:53 PM 28.4 °F 17.5 °F 17.6 °F 64% 30.30 in 10.0 mi NNW 13.8 mph - N/A   Clear
4:13 PM 28.4 °F 18.0 °F 17.6 °F 64% 30.30 in 10.0 mi NNW 12.7 mph - N/A   Clear
4:32 PM 28.4 °F 17.5 °F 17.6 °F 64% 30.30 in 10.0 mi North 13.8 mph 18.4 mph N/A   Clear
4:53 PM 28.4 °F 17.0 °F 17.6 °F 64% 30.30 in 10.0 mi North 15.0 mph 18.4 mph N/A   Clear
5:13 PM 28.4 °F 17.5 °F 17.6 °F 64% 30.29 in 10.0 mi North 13.8 mph - N/A   Clear
5:32 PM 28.4 °F 18.0 °F 17.6 °F 64% 30.29 in 10.0 mi North 12.7 mph 18.4 mph N/A   Clear
5:53 PM 26.6 °F 15.7 °F 17.6 °F 69% 30.29 in 10.0 mi North 12.7 mph - N/A   Clear
6:13 PM 26.6 °F 16.2 °F 17.6 °F 69% 30.29 in 10.0 mi North 11.5 mph - N/A   Clear
6:32 PM 26.6 °F 16.2 °F 17.6 °F 69% 30.29 in 10.0 mi North 11.5 mph 17.3 mph N/A   Clear
6:53 PM 26.6 °F 16.8 °F 17.6 °F 69% 30.29 in 10.0 mi North 10.4 mph - N/A   Clear
7:13 PM 24.8 °F 15.3 °F 17.6 °F 74% 30.28 in 10.0 mi North 9.2 mph - N/A   Clear
7:32 PM 24.8 °F 14.6 °F 17.6 °F 74% 30.28 in 10.0 mi North 10.4 mph - N/A   Clear
7:53 PM 24.8 °F 15.3 °F 17.6 °F 74% 30.28 in 10.0 mi NNW 9.2 mph - N/A   Clear
8:12 PM 21.2 °F 12.6 °F 17.6 °F 86% 30.28 in 10.0 mi North 6.9 mph - N/A   Clear
8:32 PM 21.2 °F 13.6 °F 15.8 °F 80% 30.27 in 10.0 mi North 5.8 mph - N/A   Clear
8:53 PM 21.2 °F 12.6 °F 15.8 °F 80% 30.28 in 10.0 mi North 6.9 mph - N/A   Clear
9:12 PM 19.4 °F 11.5 °F 15.8 °F 86% 30.28 in 10.0 mi NNW 5.8 mph - N/A   Clear
9:32 PM 19.4 °F 12.8 °F 15.8 °F 86% 30.28 in 10.0 mi NNW 4.6 mph - N/A   Clear
9:53 PM 17.6 °F 9.3 °F 14.0 °F 86% 30.28 in 10.0 mi NNW 5.8 mph - N/A   Clear
10:12 PM 19.4 °F 11.5 °F 17.6 °F 93% 30.29 in 10.0 mi NW 5.8 mph - N/A   Clear
10:32 PM 19.4 °F 11.5 °F 17.6 °F 93% 30.29 in 10.0 mi NW 5.8 mph - N/A   Clear
10:53 PM 19.4 °F 12.8 °F 17.6 °F 93% 30.28 in 10.0 mi WNW 4.6 mph - N/A   Clear
11:12 PM 19.4 °F 12.8 °F 15.8 °F 86% 30.28 in 10.0 mi WNW 4.6 mph - N/A   Clear
11:32 PM 19.4 °F 14.3 °F 15.8 °F 86% 30.28 in 10.0 mi WNW 3.5 mph - N/A   Clear
11:53 PM 19.4 °F 14.3 °F 17.6 °F 93% 30.27 in 10.0 mi West 3.5 mph - N/A   Clear